Time;durP1;ratioP1;P1;durP2;ratioP2;P2;SDS_P1;SDS_P2;PMS_P1;PMS_P2;Temp;Humidity;BMP_temperature;BMP_pressure;BME280_temperature;BME280_humidity;BME280_pressure;Samples;Min_cycle;Max_cycle;Signal;HPM_P1;HPM_P2
2022/04/04 00:00:00;;;;;;;4.70;3.77;;;;;;;4.83;43.11;98221.75;8380131;28;20227;-69
2022/04/04 00:04:04;;;;;;;7.17;4.20;;;;;;;4.77;43.15;98227.81;8379363;28;20526;-68
2022/04/04 00:08:07;;;;;;;5.87;4.03;;;;;;;4.73;43.42;98225.34;8379741;28;20235;-69
2022/04/04 00:12:10;;;;;;;6.87;4.20;;;;;;;4.68;43.23;98215.16;8379387;28;20234;-69
2022/04/04 00:16:15;;;;;;;4.73;4.10;;;;;;;4.57;43.37;98220.47;8379434;28;20235;-68
2022/04/04 00:20:19;;;;;;;4.37;3.97;;;;;;;4.62;43.39;98216.09;8384941;28;20232;-68
2022/04/04 00:24:22;;;;;;;5.73;4.30;;;;;;;4.55;43.88;98221.34;8385549;28;20231;-69
2022/04/04 00:28:28;;;;;;;6.00;4.10;;;;;;;4.58;43.55;98226.44;8385639;28;20554;-68
2022/04/04 00:32:33;;;;;;;4.63;4.23;;;;;;;4.52;43.75;98218.84;8385520;28;20231;-68
2022/04/04 00:36:36;;;;;;;6.50;4.53;;;;;;;4.48;44.00;98207.78;8385411;28;20231;-68
2022/04/04 00:40:39;;;;;;;5.10;4.00;;;;;;;4.50;43.54;98208.59;8385308;28;20228;-69
2022/04/04 00:44:42;;;;;;;5.63;4.40;;;;;;;4.52;43.68;98208.59;8385307;28;20557;-69
2022/04/04 00:48:48;;;;;;;5.20;3.73;;;;;;;4.48;43.61;98206.06;8385261;28;20227;-68
2022/04/04 00:52:51;;;;;;;6.00;4.17;;;;;;;4.44;43.73;98201.03;8385130;28;20227;-70
2022/04/04 00:56:55;;;;;;;4.87;3.67;;;;;;;4.46;43.63;98202.69;8384807;28;20238;-69
2022/04/04 01:00:59;;;;;;;10.00;4.53;;;;;;;4.37;43.62;98197.69;8384777;28;20227;-68
2022/04/04 01:05:04;;;;;;;5.83;3.90;;;;;;;4.33;43.46;98195.22;8384848;28;20250;-68
2022/04/04 01:09:07;;;;;;;5.17;3.87;;;;;;;4.42;43.49;98198.47;8384590;28;20402;-68
2022/04/04 01:13:10;;;;;;;5.40;4.00;;;;;;;4.36;43.32;98190.88;8384124;28;20226;-69
2022/04/04 01:17:14;;;;;;;6.07;4.47;;;;;;;4.37;43.43;98187.44;8384381;28;20231;-68
2022/04/04 01:21:20;;;;;;;6.30;4.90;;;;;;;4.38;43.31;98175.44;8384270;28;20421;-68
2022/04/04 01:25:26;;;;;;;5.63;4.33;;;;;;;4.28;43.19;98173.06;8384169;28;20242;-68
2022/04/04 01:29:29;;;;;;;7.63;4.47;;;;;;;4.22;43.33;98169.72;8383246;28;20238;-68
2022/04/04 01:33:32;;;;;;;8.20;4.60;;;;;;;4.24;43.37;98168.00;8384096;28;20231;-68
2022/04/04 01:37:34;;;;;;;6.17;4.40;;;;;;;4.22;43.82;98167.16;8383759;28;20419;-68
2022/04/04 01:41:39;;;;;;;4.80;4.40;;;;;;;4.18;43.25;98168.09;8383742;28;20248;-69
2022/04/04 01:50:04;;;;;;;5.87;4.37;;;;;;;4.17;43.29;98156.13;8385349;28;20238;-68
2022/04/04 01:54:07;;;;;;;4.57;4.00;;;;;;;4.24;43.20;98144.91;8385257;28;20200;-68
2022/04/04 01:58:11;;;;;;;7.37;4.17;;;;;;;4.21;43.29;98134.72;8385072;28;20223;-68
2022/04/04 02:02:14;;;;;;;5.37;4.23;;;;;;;4.28;43.08;98134.59;8385107;28;20206;-68
2022/04/04 02:06:18;;;;;;;6.27;4.20;;;;;;;4.32;43.08;98135.38;8383728;28;20239;-69
2022/04/04 02:10:21;;;;;;;7.17;3.60;;;;;;;4.23;43.57;98133.81;8382655;28;20239;-68
2022/04/04 02:14:25;;;;;;;6.47;4.23;;;;;;;4.32;43.29;98137.94;8382507;28;20231;-69
2022/04/04 02:18:28;;;;;;;4.70;3.87;;;;;;;4.23;42.90;98128.69;8382381;28;20247;-68
2022/04/04 02:22:31;;;;;;;4.20;3.80;;;;;;;4.24;43.20;98122.69;8382527;28;20227;-68
2022/04/04 02:26:34;;;;;;;4.57;4.10;;;;;;;4.17;43.48;98117.69;8382215;28;20235;-68
2022/04/04 02:30:38;;;;;;;7.33;4.27;;;;;;;4.14;43.32;98117.75;8382004;28;20234;-68
2022/04/04 02:34:41;;;;;;;5.13;3.90;;;;;;;4.07;43.82;98116.97;8382206;28;20538;-68
2022/04/04 02:38:44;;;;;;;5.50;4.27;;;;;;;3.98;43.65;98115.44;8381936;28;20231;-69
2022/04/04 02:42:47;;;;;;;4.50;4.00;;;;;;;4.07;43.64;98119.53;8381441;28;20254;-68
2022/04/04 02:46:52;;;;;;;5.40;4.00;;;;;;;4.04;44.14;98115.31;8381462;28;20231;-69
2022/04/04 02:50:55;;;;;;;4.70;4.20;;;;;;;4.00;43.77;98107.69;8381281;28;20227;-68
2022/04/04 02:54:58;;;;;;;5.17;3.90;;;;;;;3.94;44.51;98108.66;8380954;28;20584;-68
2022/04/04 02:59:04;;;;;;;5.17;4.40;;;;;;;3.99;43.95;98106.03;8380800;28;20270;-68
2022/04/04 03:03:08;;;;;;;5.63;4.57;;;;;;;3.77;44.11;98093.53;8380774;28;20239;-68
2022/04/04 03:07:12;;;;;;;4.73;4.20;;;;;;;3.91;44.18;98101.00;8380409;28;20235;-68
2022/04/04 03:11:15;;;;;;;5.17;4.23;;;;;;;3.91;44.09;98099.28;8380579;28;20385;-68
2022/04/04 03:15:19;;;;;;;6.17;4.33;;;;;;;3.91;44.34;98095.88;8380639;28;20421;-69
2022/04/04 03:19:23;;;;;;;5.80;4.20;;;;;;;3.90;45.04;98091.63;8380555;28;20538;-68
2022/04/04 03:23:27;;;;;;;5.97;4.53;;;;;;;3.97;44.75;98093.22;8380468;28;20235;-68
2022/04/04 03:27:30;;;;;;;6.13;4.73;;;;;;;3.99;44.54;98088.91;8380330;28;20514;-68
2022/04/04 03:31:33;;;;;;;5.37;4.80;;;;;;;3.96;44.39;98088.13;8380273;28;20237;-68
2022/04/04 03:35:38;;;;;;;7.20;5.40;;;;;;;3.92;44.27;98079.63;8380381;28;20234;-68
2022/04/04 03:39:43;;;;;;;9.00;6.73;;;;;;;3.72;44.08;98088.47;8380176;28;20425;-69
2022/04/04 03:43:46;;;;;;;8.93;6.63;;;;;;;3.76;44.33;98088.44;8380080;28;20235;-68
2022/04/04 03:47:50;;;;;;;9.67;6.47;;;;;;;3.69;44.39;98082.53;8380202;28;20568;-68
2022/04/04 03:51:54;;;;;;;8.57;6.40;;;;;;;3.60;44.51;98080.13;8380174;28;20234;-69
2022/04/04 03:55:58;;;;;;;8.80;6.70;;;;;;;3.83;44.22;98077.25;8387126;28;20231;-68
2022/04/04 04:00:02;;;;;;;9.03;6.17;;;;;;;3.67;45.33;98079.16;8386815;28;20226;-68
2022/04/04 04:04:05;;;;;;;8.30;5.60;;;;;;;3.76;44.83;98081.59;8386236;28;20251;-68
2022/04/04 04:08:09;;;;;;;9.70;6.17;;;;;;;3.75;44.79;98073.91;8386617;28;20239;-68
2022/04/04 04:12:15;;;;;;;7.00;6.00;;;;;;;3.77;44.95;98070.50;8386178;28;20233;-68
2022/04/04 04:16:18;;;;;;;6.07;5.47;;;;;;;3.81;44.81;98068.69;8386369;28;20235;-68
2022/04/04 04:20:22;;;;;;;7.47;5.43;;;;;;;3.69;44.96;98062.94;8386067;28;20511;-68
2022/04/04 04:24:27;;;;;;;7.50;5.73;;;;;;;3.63;45.27;98060.44;8385806;28;20238;-68
2022/04/04 04:28:30;;;;;;;7.03;5.70;;;;;;;3.74;44.93;98057.72;8385657;28;20238;-68
2022/04/04 04:32:33;;;;;;;12.07;8.53;;;;;;;3.72;44.61;98064.59;8385320;28;20242;-68
2022/04/04 04:36:37;;;;;;;9.47;7.23;;;;;;;3.65;44.83;98060.41;8385465;28;20235;-68
2022/04/04 04:40:41;;;;;;;7.03;6.13;;;;;;;3.65;45.33;98058.69;8385218;28;20231;-68
2022/04/04 04:44:44;;;;;;;9.70;6.50;;;;;;;3.74;44.69;98057.72;8394292;28;20231;-68
2022/04/04 04:48:47;;;;;;;9.80;6.77;;;;;;;3.48;45.23;98053.84;8418208;28;20227;-68
2022/04/04 04:52:52;;;;;;;10.13;6.90;;;;;;;3.68;44.99;98047.56;8418289;28;20269;-68
2022/04/04 04:56:57;;;;;;;10.37;7.03;;;;;;;3.66;45.33;98039.91;8418160;28;20237;-68
2022/04/04 05:01:02;;;;;;;9.77;7.53;;;;;;;3.37;45.90;98045.47;8414183;28;20235;-68
2022/04/04 05:05:05;;;;;;;11.37;7.77;;;;;;;3.66;45.33;98042.47;8383012;28;20227;-68
2022/04/04 05:09:08;;;;;;;9.50;8.03;;;;;;;3.58;45.20;98043.44;8384515;28;20538;-68
2022/04/04 05:13:13;;;;;;;11.37;8.80;;;;;;;3.62;45.69;98040.81;8384108;28;20219;-68
2022/04/04 05:17:16;;;;;;;9.23;8.23;;;;;;;3.58;45.38;98039.19;8384212;28;20243;-68
2022/04/04 05:21:19;;;;;;;9.90;7.50;;;;;;;3.70;45.14;98041.53;8384281;28;20235;-68
2022/04/04 05:25:22;;;;;;;9.77;7.73;;;;;;;3.82;45.13;98029.41;8384071;28;20238;-68
2022/04/04 05:29:27;;;;;;;11.20;7.77;;;;;;;3.83;45.13;98033.69;8383622;28;20239;-68
2022/04/04 05:33:30;;;;;;;10.00;7.60;;;;;;;3.95;44.81;98042.88;8383857;28;20231;-69
2022/04/04 05:37:39;;;;;;;11.53;8.80;;;;;;;4.09;44.39;98035.78;8381536;28;20231;-69
2022/04/04 05:41:42;;;;;;;9.50;7.90;;;;;;;4.34;44.33;98035.34;8382697;28;20542;-69
2022/04/04 05:45:49;;;;;;;10.17;7.93;;;;;;;5.07;42.63;98040.78;8383627;28;20576;-69
2022/04/04 05:49:55;;;;;;;8.80;7.43;;;;;;;5.39;41.94;98040.09;8383206;28;20253;-69
2022/04/04 05:53:57;;;;;;;9.03;7.13;;;;;;;5.87;41.02;98028.69;8383363;28;20227;-69
2022/04/04 05:58:00;;;;;;;12.67;7.93;;;;;;;5.97;40.83;98027.59;8383148;28;20235;-69
2022/04/04 06:02:05;;;;;;;10.27;7.40;;;;;;;6.50;39.78;98026.28;8382635;28;20238;-69
2022/04/04 06:06:14;;;;;;;10.33;7.43;;;;;;;6.66;39.34;98032.66;8382549;28;20298;-69
2022/04/04 06:10:17;;;;;;;8.77;6.97;;;;;;;7.00;39.27;98031.72;8382003;28;20227;-69
2022/04/04 06:14:20;;;;;;;10.57;7.23;;;;;;;7.16;39.09;98032.97;8382393;28;20427;-69
2022/04/04 06:18:24;;;;;;;9.30;6.87;;;;;;;7.30;38.67;98035.13;8381877;28;20440;-69
2022/04/04 06:22:27;;;;;;;8.87;7.87;;;;;;;7.60;37.88;98040.25;8382297;28;20250;-69
2022/04/04 06:26:32;;;;;;;8.50;7.43;;;;;;;7.96;37.58;98030.50;8382133;28;20232;-69
2022/04/04 06:30:37;;;;;;;13.30;8.13;;;;;;;8.16;36.67;98024.66;8382151;28;20239;-67
2022/04/04 06:34:42;;;;;;;9.80;8.33;;;;;;;8.27;36.59;98026.88;8381889;28;20231;-67
2022/04/04 06:38:44;;;;;;;8.90;7.97;;;;;;;8.42;36.19;98022.97;8381761;28;20417;-67
2022/04/04 06:42:49;;;;;;;9.67;8.67;;;;;;;8.74;36.08;98015.84;8381456;28;20274;-67
2022/04/04 06:46:56;;;;;;;9.87;8.87;;;;;;;8.97;35.31;98018.41;8381535;28;20228;-68
2022/04/04 06:51:01;;;;;;;9.47;8.47;;;;;;;9.06;34.96;98012.03;8381556;28;20243;-67
2022/04/04 06:55:06;;;;;;;8.97;8.07;;;;;;;9.29;34.99;98012.91;8381184;28;20227;-67
2022/04/04 06:59:09;;;;;;;12.03;8.97;;;;;;;9.29;35.06;98012.91;8380663;28;20430;-68
2022/04/04 07:03:12;;;;;;;9.80;8.70;;;;;;;9.47;34.38;98019.97;8381124;28;20232;-68
2022/04/04 07:07:17;;;;;;;10.57;9.00;;;;;;;9.72;33.87;98012.09;8381037;28;20289;-68
2022/04/04 07:11:21;;;;;;;9.50;8.50;;;;;;;9.83;34.00;98005.66;8380915;28;20242;-68
2022/04/04 07:15:25;;;;;;;9.40;8.50;;;;;;;10.05;33.79;98006.47;8380692;28;20435;-68
2022/04/04 07:19:33;;;;;;;10.13;8.47;;;;;;;9.74;33.67;98009.44;8380701;28;20239;-67
2022/04/04 07:23:37;;;;;;;9.73;8.80;;;;;;;10.02;33.26;98000.56;8380569;28;20411;-67
2022/04/04 07:27:41;;;;;;;9.43;8.47;;;;;;;10.09;33.58;97996.78;8379653;28;20228;-67
2022/04/04 07:31:44;;;;;;;10.50;8.53;;;;;;;9.96;33.29;97999.91;8380173;28;20227;-67
2022/04/04 07:35:47;;;;;;;9.77;8.67;;;;;;;10.07;33.46;97996.03;8380004;28;20231;-68
2022/04/04 07:39:52;;;;;;;9.53;8.03;;;;;;;10.45;32.77;97993.59;8379803;28;20564;-69
2022/04/04 07:43:55;;;;;;;9.90;8.87;;;;;;;10.49;32.56;97993.41;8379869;28;20235;-67
2022/04/04 07:47:59;;;;;;;9.67;8.67;;;;;;;10.82;32.06;97994.56;8379746;28;20333;-68
2022/04/04 07:52:02;;;;;;;9.13;8.23;;;;;;;11.25;31.71;97996.03;8379897;28;20224;-67
2022/04/04 07:56:07;;;;;;;9.70;8.80;;;;;;;11.42;31.19;97989.22;8379875;28;20426;-68
2022/04/04 08:00:11;;;;;;;9.50;8.60;;;;;;;11.51;30.91;97986.19;8379062;28;20227;-68
2022/04/04 08:04:15;;;;;;;12.57;9.50;;;;;;;11.81;30.99;97978.66;8379556;28;20542;-68
2022/04/04 08:08:18;;;;;;;10.40;9.30;;;;;;;11.80;30.25;97981.34;8379388;28;20239;-68
2022/04/04 08:12:26;;;;;;;10.20;9.13;;;;;;;11.93;30.28;97979.84;8379629;28;20231;-68
2022/04/04 08:16:29;;;;;;;9.50;8.60;;;;;;;12.24;29.88;97968.78;8379552;28;20425;-67
2022/04/04 08:20:32;;;;;;;9.67;8.67;;;;;;;11.80;29.76;97968.34;8379619;28;20241;-67
2022/04/04 08:24:35;;;;;;;8.63;7.73;;;;;;;11.40;29.39;97972.88;8379496;28;20227;-68
2022/04/04 08:28:39;;;;;;;11.80;8.20;;;;;;;12.60;29.13;97957.38;8379574;28;20534;-68
2022/04/04 08:32:43;;;;;;;8.77;7.57;;;;;;;12.18;28.56;97952.66;8378956;28;20242;-68
2022/04/04 08:36:49;;;;;;;8.47;7.30;;;;;;;12.61;29.03;97948.66;8379513;28;20273;-67
2022/04/04 08:40:54;;;;;;;8.93;8.03;;;;;;;12.56;28.85;97948.06;8383571;28;20228;-68
2022/04/04 08:44:59;;;;;;;9.00;7.40;;;;;;;12.84;28.49;97942.25;8384916;28;20514;-67
2022/04/04 08:49:05;;;;;;;9.83;7.80;;;;;;;13.30;35.73;97938.91;8385336;28;20236;-63
2022/04/04 08:53:09;;;;;;;7.03;6.33;;;;;;;13.11;37.47;97942.50;8385053;28;20530;-63
2022/04/04 08:57:12;;;;;;;6.70;5.77;;;;;;;14.44;36.56;97925.34;8383985;28;20629;-63
2022/04/04 09:01:18;;;;;;;5.93;5.33;;;;;;;13.66;34.32;97922.16;8391964;28;20240;-64
2022/04/04 09:05:21;;;;;;;6.43;4.53;;;;;;;15.04;30.41;97918.22;8384201;28;20239;-64
2022/04/04 09:09:26;;;;;;;6.10;5.47;;;;;;;14.54;24.47;97907.38;8384342;28;20247;-70
2022/04/04 09:13:29;;;;;;;6.20;5.60;;;;;;;13.45;25.06;97903.41;8384577;28;20246;-75
2022/04/04 09:17:34;;;;;;;6.27;5.53;;;;;;;13.93;25.89;97898.03;8384160;28;20518;-79
2022/04/04 09:21:38;;;;;;;5.67;4.90;;;;;;;14.26;25.10;97895.22;8384136;28;20548;-75
2022/04/04 09:25:41;;;;;;;6.37;4.93;;;;;;;13.75;24.07;97882.59;8384243;28;20296;-74
2022/04/04 09:29:46;;;;;;;8.17;4.90;;;;;;;13.26;24.34;97881.00;8384013;28;20295;-74
2022/04/04 09:33:50;;;;;;;5.63;4.90;;;;;;;13.36;24.66;97881.34;8383714;28;20234;-75
2022/04/04 09:37:53;;;;;;;8.63;5.07;;;;;;;13.57;24.55;97886.25;8383719;28;20633;-73
2022/04/04 09:41:59;;;;;;;6.50;5.20;;;;;;;12.93;25.16;97875.09;8383335;28;20236;-72
2022/04/04 09:46:10;;;;;;;5.40;4.90;;;;;;;13.38;24.04;97869.09;8383846;28;20883;-74
2022/04/04 09:54:53;;;;;;;5.57;4.47;;;;;;;13.77;23.57;97851.28;8381116;27;20906;-74
2022/04/04 09:58:58;;;;;;;5.33;4.53;;;;;;;13.29;23.48;97849.63;8375756;28;20301;-65
2022/04/04 10:03:02;;;;;;;5.40;4.10;;;;;;;13.60;23.03;97839.25;8375072;28;20298;-64
2022/04/04 10:07:08;;;;;;;4.50;4.10;;;;;;;14.24;22.90;97842.34;8375419;28;20246;-66
2022/04/04 10:11:13;;;;;;;4.60;4.07;;;;;;;13.79;22.45;97836.41;8375124;28;20545;-65
2022/04/04 10:15:16;;;;;;;6.10;4.00;;;;;;;13.55;23.20;97836.06;8375485;28;20242;-65
2022/04/04 10:19:19;;;;;;;6.13;3.90;;;;;;;13.46;22.82;97819.22;8375250;28;20243;-65
2022/04/04 10:23:23;;;;;;;4.97;4.47;;;;;;;12.74;24.14;97808.56;8375158;28;20239;-65
2022/04/04 10:27:27;;;;;;;4.73;4.10;;;;;;;13.18;22.94;97800.00;8375102;28;20298;-65
2022/04/04 10:31:42;;;;;;;4.23;3.83;;;;;;;12.59;24.09;97794.66;8374607;28;20235;-66
2022/04/04 10:35:59;;;;;;;4.80;4.30;;;;;;;12.64;23.85;97791.78;8374541;28;20486;-66
2022/04/04 10:40:18;;;;;;;4.37;3.87;;;;;;;12.76;23.48;97783.31;8374345;28;20242;-66
2022/04/04 10:44:45;;;;;;;4.87;4.37;;;;;;;12.28;23.76;97783.34;8373955;28;20557;-66
2022/04/04 10:48:50;;;;;;;5.17;3.90;;;;;;;12.61;23.45;97771.19;8374067;28;20242;-64
2022/04/04 10:52:54;;;;;;;6.60;4.00;;;;;;;13.03;24.28;97761.88;8373499;28;20251;-65
2022/04/04 10:57:00;;;;;;;5.30;4.40;;;;;;;13.83;24.00;97760.63;8373916;28;20255;-65
2022/04/04 11:01:09;;;;;;;4.50;4.10;;;;;;;13.33;24.20;97764.50;8373968;28;20223;-65
2022/04/04 11:09:47;;;;;;;5.27;4.50;;;;;;;12.93;24.64;97747.72;8351225;28;20435;-66
2022/04/04 11:13:51;;;;;;;5.20;4.70;;;;;;;12.75;24.21;97731.44;8351429;28;20396;-65
2022/04/04 11:18:00;;;;;;;5.60;4.60;;;;;;;12.09;25.19;97729.00;8351535;28;20508;-64
2022/04/04 11:22:05;;;;;;;4.83;4.33;;;;;;;11.92;25.33;97729.88;8351523;28;20267;-63
2022/04/04 11:26:11;;;;;;;5.50;4.50;;;;;;;12.35;25.46;97721.50;8350439;28;20504;-65
2022/04/04 11:30:14;;;;;;;5.80;4.90;;;;;;;13.02;25.44;97714.28;8347674;28;20220;-61
2022/04/04 11:34:27;;;;;;;7.43;5.00;;;;;;;13.05;25.48;97695.88;8350079;28;20239;-61
2022/04/04 11:38:38;;;;;;;7.03;5.43;;;;;;;13.10;25.53;97687.81;8347667;28;20228;-60
2022/04/04 11:42:44;;;;;;;7.23;5.40;;;;;;;13.28;24.36;97698.88;8350917;28;20232;-60
2022/04/04 11:47:02;;;;;;;7.90;4.80;;;;;;;12.81;24.49;97668.72;8350599;28;20309;-60
2022/04/04 11:51:10;;;;;;;6.20;4.50;;;;;;;13.30;24.20;97671.06;8350311;28;20561;-59
2022/04/04 11:55:16;;;;;;;5.23;4.77;;;;;;;13.73;24.74;97659.78;8349771;28;20232;-60
2022/04/04 11:59:24;;;;;;;5.50;5.00;;;;;;;14.38;24.10;97643.53;8350023;28;20295;-60
2022/04/04 12:03:27;;;;;;;8.77;5.10;;;;;;;14.05;24.21;97648.22;8349714;28;20236;-60
2022/04/04 12:07:33;;;;;;;5.73;5.13;;;;;;;13.23;24.21;97635.91;8348926;28;20243;-59
2022/04/04 12:11:38;;;;;;;5.77;5.13;;;;;;;13.38;23.67;97616.78;8349187;28;20228;-60
2022/04/04 12:15:44;;;;;;;8.77;5.70;;;;;;;12.98;24.65;97607.94;8345949;28;20235;-61
2022/04/04 12:19:50;;;;;;;6.93;6.00;;;;;;;13.18;24.90;97597.19;8346527;28;20535;-60
2022/04/04 12:28:22;;;;;;;9.47;5.50;;;;;;;12.42;24.90;97580.03;8346598;28;20235;-61
2022/04/04 12:32:26;;;;;;;6.97;5.87;;;;;;;13.12;24.41;97584.56;8345571;28;20230;-60
2022/04/04 12:36:29;;;;;;;6.30;5.70;;;;;;;12.43;25.55;97571.31;8347381;28;20593;-60
2022/04/04 12:40:33;;;;;;;6.33;5.77;;;;;;;13.23;24.75;97561.34;8347021;28;20279;-60
2022/04/04 12:44:36;;;;;;;7.67;5.80;;;;;;;13.12;25.00;97550.78;8346872;28;20239;-60
2022/04/04 12:48:41;;;;;;;6.20;5.60;;;;;;;13.04;24.41;97540.84;8347012;28;20228;-60
2022/04/04 12:52:58;;;;;;;6.37;5.77;;;;;;;13.27;24.22;97536.81;8346751;28;20236;-60
2022/04/04 12:57:04;;;;;;;6.03;5.50;;;;;;;13.88;25.13;97528.72;8346825;28;20235;-63
2022/04/04 13:01:12;;;;;;;7.00;5.93;;;;;;;13.31;24.03;97508.91;8342576;28;20775;-65
2022/04/04 13:05:16;;;;;;;7.90;6.33;;;;;;;12.24;25.56;97521.38;8338952;28;20220;-64
2022/04/04 13:09:25;;;;;;;8.10;6.13;;;;;;;12.93;25.16;97503.41;8346639;28;20227;-64
2022/04/04 13:13:29;;;;;;;23.57;6.60;;;;;;;12.77;24.66;97498.34;8343039;28;20232;-64
2022/04/04 13:17:37;;;;;;;8.30;6.30;;;;;;;12.83;25.88;97495.34;8347230;28;20220;-64
2022/04/04 13:21:41;;;;;;;8.93;6.20;;;;;;;12.54;26.11;97486.72;8347449;28;20228;-64
2022/04/04 13:25:45;;;;;;;7.77;5.97;;;;;;;12.22;25.30;97468.69;8347659;28;20232;-64
2022/04/04 13:29:49;;;;;;;9.03;6.03;;;;;;;12.14;25.56;97469.16;8347613;28;20236;-64
2022/04/04 13:33:54;;;;;;;9.73;5.23;;;;;;;12.64;25.43;97460.13;8347022;28;20232;-64
2022/04/04 13:37:57;;;;;;;5.90;5.40;;;;;;;12.59;25.31;97456.13;8347264;28;20569;-64
2022/04/04 13:42:00;;;;;;;6.77;5.30;;;;;;;12.69;25.85;97439.03;8347011;28;20231;-64
2022/04/04 13:46:05;;;;;;;5.43;4.93;;;;;;;12.51;26.30;97441.00;8346853;28;20232;-64
2022/04/04 13:50:09;;;;;;;5.83;5.33;;;;;;;12.63;26.39;97427.25;8346390;28;20232;-64
2022/04/04 13:54:13;;;;;;;6.60;4.80;;;;;;;12.32;26.22;97420.50;8346230;28;20307;-64
2022/04/04 13:58:16;;;;;;;8.40;5.10;;;;;;;11.68;26.37;97412.13;8346407;28;20232;-66
2022/04/04 14:02:20;;;;;;;6.17;4.87;;;;;;;11.87;26.71;97419.66;8346664;28;20251;-65
2022/04/04 14:06:23;;;;;;;8.07;4.77;;;;;;;12.06;26.82;97412.50;8346673;28;20295;-66
2022/04/04 14:10:27;;;;;;;5.90;4.90;;;;;;;12.29;26.28;97408.53;8336949;28;20228;-64
2022/04/04 14:14:30;;;;;;;5.60;5.00;;;;;;;11.72;26.66;97390.25;8346162;28;20557;-64
2022/04/04 14:18:35;;;;;;;5.30;4.80;;;;;;;11.95;27.83;97399.31;8345636;28;20232;-64
2022/04/04 14:22:38;;;;;;;5.20;4.70;;;;;;;11.80;27.82;97387.22;8346457;28;20234;-64
2022/04/04 14:26:41;;;;;;;5.20;4.63;;;;;;;11.31;27.86;97377.94;8346517;28;20228;-64
2022/04/04 14:30:44;;;;;;;4.57;4.17;;;;;;;11.55;27.18;97368.72;8346453;28;20228;-64
2022/04/04 14:34:48;;;;;;;5.00;3.90;;;;;;;11.24;27.60;97359.28;8343043;28;20232;-64
2022/04/04 14:38:51;;;;;;;4.10;3.80;;;;;;;11.18;27.67;97361.41;8315711;28;20239;-64
2022/04/04 14:42:54;;;;;;;4.73;4.10;;;;;;;11.03;28.26;97356.16;8319951;28;20239;-64
2022/04/04 14:46:57;;;;;;;5.50;4.30;;;;;;;10.75;28.76;97349.06;8319821;28;20237;-65
2022/04/04 14:51:21;;;;;;;5.37;4.20;;;;;;;10.69;28.96;97332.09;8318919;28;20245;-64
2022/04/04 14:55:24;;;;;;;5.00;4.50;;;;;;;10.55;29.02;97332.03;8319161;28;20570;-64
2022/04/04 14:59:32;;;;;;;4.83;4.33;;;;;;;10.58;29.38;97331.84;8319215;28;20228;-64
2022/04/04 15:03:35;;;;;;;6.30;5.70;;;;;;;10.54;29.26;97320.81;8346557;28;20242;-64
2022/04/04 15:07:40;;;;;;;8.63;5.37;;;;;;;10.38;29.27;97320.00;8351848;28;20295;-64
2022/04/04 15:11:44;;;;;;;6.10;4.87;;;;;;;10.07;29.50;97306.09;8351623;28;20568;-63
2022/04/04 15:15:47;;;;;;;4.80;4.30;;;;;;;10.52;29.41;97317.47;8351425;28;20243;-64
2022/04/04 15:20:10;;;;;;;4.73;4.13;;;;;;;10.43;29.55;97314.56;8350625;28;20446;-64
2022/04/04 15:24:15;;;;;;;4.97;4.27;;;;;;;10.41;29.63;97306.88;8350560;28;20420;-64
2022/04/04 15:28:23;;;;;;;5.30;4.30;;;;;;;10.43;30.05;97314.56;8350359;28;20221;-63
2022/04/04 15:32:27;;;;;;;7.43;6.00;;;;;;;10.59;29.92;97306.81;8350089;28;20247;-64
2022/04/04 15:36:36;;;;;;;6.97;5.63;;;;;;;10.58;30.20;97298.19;8350087;28;20410;-63
2022/04/04 15:40:41;;;;;;;5.57;4.67;;;;;;;10.29;30.21;97305.75;8348201;28;20243;-63
2022/04/04 15:44:45;;;;;;;7.67;5.27;;;;;;;10.09;30.52;97288.72;8349820;28;20239;-63
2022/04/04 15:48:48;;;;;;;5.83;4.60;;;;;;;10.10;30.74;97289.56;8349212;28;20238;-63
2022/04/04 15:52:51;;;;;;;5.60;5.00;;;;;;;10.03;30.97;97276.09;8349591;28;20243;-65
2022/04/04 15:56:58;;;;;;;6.27;5.03;;;;;;;9.92;31.34;97276.69;8350271;28;20313;-63
2022/04/04 16:01:01;;;;;;;5.20;4.70;;;;;;;9.74;31.68;97272.47;8350378;28;20238;-64
2022/04/04 16:05:05;;;;;;;5.17;4.70;;;;;;;9.86;31.58;97271.84;8349890;28;20251;-63
2022/04/04 16:09:08;;;;;;;8.60;5.97;;;;;;;9.90;31.67;97272.47;8349785;28;20232;-65
2022/04/04 16:13:12;;;;;;;5.50;4.93;;;;;;;10.04;31.92;97279.53;8349317;28;20231;-64
2022/04/04 16:17:15;;;;;;;7.13;5.43;;;;;;;9.91;32.33;97269.00;8349837;28;20232;-64
2022/04/04 16:21:19;;;;;;;9.13;5.70;;;;;;;9.74;32.91;97264.72;8349684;28;20239;-63
2022/04/04 16:25:22;;;;;;;6.07;5.47;;;;;;;9.88;33.00;97261.38;8349715;28;20232;-62
2022/04/04 16:29:26;;;;;;;7.03;5.83;;;;;;;9.79;33.02;97253.22;8349249;28;20530;-62
2022/04/04 16:33:29;;;;;;;7.83;6.07;;;;;;;9.84;33.65;97255.53;8349110;28;20244;-63
2022/04/04 16:37:32;;;;;;;7.70;6.07;;;;;;;9.89;33.37;97268.25;8349253;28;20231;-63
2022/04/04 16:41:35;;;;;;;8.90;6.47;;;;;;;9.66;33.76;97272.03;8348933;28;20531;-60
2022/04/04 16:45:40;;;;;;;7.40;6.60;;;;;;;9.87;33.55;97254.56;8348870;28;20231;-60
2022/04/04 16:49:43;;;;;;;6.73;6.13;;;;;;;9.72;33.83;97272.53;8348487;28;20531;-60
2022/04/04 16:53:49;;;;;;;6.70;6.00;;;;;;;9.95;34.00;97263.56;8348104;28;20239;-60
2022/04/04 16:57:52;;;;;;;7.47;6.43;;;;;;;9.51;34.15;97266.72;8348520;28;20339;-60
2022/04/04 17:01:56;;;;;;;6.90;5.80;;;;;;;9.67;34.03;97258.19;8347523;28;20232;-60
2022/04/04 17:05:59;;;;;;;7.60;6.07;;;;;;;9.87;33.49;97262.31;8348070;28;20236;-60
2022/04/04 17:10:03;;;;;;;7.07;6.00;;;;;;;9.56;33.75;97258.75;8347150;28;20236;-61
2022/04/04 17:14:07;;;;;;;8.40;7.23;;;;;;;9.46;34.42;97254.94;8347102;28;20240;-61
2022/04/04 17:18:12;;;;;;;7.43;6.67;;;;;;;9.60;34.41;97265.44;8343784;28;20227;-61
2022/04/04 17:22:14;;;;;;;7.63;6.83;;;;;;;9.56;34.72;97254.41;8346699;28;20246;-62
2022/04/04 17:26:17;;;;;;;8.93;6.80;;;;;;;8.94;36.88;97245.50;8346554;28;20251;-61
2022/04/04 17:30:20;;;;;;;6.40;5.80;;;;;;;9.49;35.55;97244.47;8346796;28;20227;-61
2022/04/04 17:34:25;;;;;;;9.00;6.57;;;;;;;9.62;35.42;97237.75;8347144;28;20232;-61
2022/04/04 17:38:27;;;;;;;6.93;5.77;;;;;;;9.52;35.14;97254.63;8345920;28;20227;-61
2022/04/04 17:42:32;;;;;;;7.93;5.90;;;;;;;9.49;35.02;97237.53;8347001;28;20239;-61
2022/04/04 17:46:35;;;;;;;9.10;6.90;;;;;;;9.48;35.28;97233.31;8347130;28;20235;-61
2022/04/04 17:50:39;;;;;;;7.73;5.70;;;;;;;9.16;35.86;97225.44;8347131;28;20234;-61
2022/04/04 17:54:42;;;;;;;7.30;5.73;;;;;;;9.29;35.30;97217.91;8347069;28;20243;-62
2022/04/04 17:58:46;;;;;;;7.63;6.83;;;;;;;9.35;35.70;97209.81;8347255;28;20249;-61
2022/04/04 18:02:51;;;;;;;7.23;6.27;;;;;;;9.40;35.51;97212.16;8346794;28;20234;-61
2022/04/04 18:06:57;;;;;;;7.03;6.33;;;;;;;9.37;35.54;97210.59;8346755;28;20420;-61
2022/04/04 18:11:01;;;;;;;8.37;6.73;;;;;;;9.44;35.61;97212.84;8347065;28;20346;-61
2022/04/04 18:15:05;;;;;;;6.80;6.10;;;;;;;9.25;36.19;97205.19;8350662;28;20240;-61
2022/04/04 18:19:08;;;;;;;7.80;6.23;;;;;;;9.25;35.81;97220.69;8353105;28;20223;-61
2022/04/04 18:23:14;;;;;;;8.17;6.23;;;;;;;9.20;36.06;97210.63;8352165;28;20228;-62
2022/04/04 18:27:17;;;;;;;7.47;6.67;;;;;;;9.17;35.96;97205.59;8352158;28;20319;-62
2022/04/04 18:31:20;;;;;;;9.47;6.67;;;;;;;9.16;36.14;97217.69;8352863;28;20236;-62
2022/04/04 18:35:24;;;;;;;9.83;6.83;;;;;;;9.06;36.55;97218.22;8352758;28;20243;-61
2022/04/04 18:39:29;;;;;;;7.87;6.63;;;;;;;8.99;36.57;97215.13;8352683;28;20243;-61
2022/04/04 18:43:31;;;;;;;7.07;6.33;;;;;;;8.90;37.46;97229.31;8352281;28;20236;-62
2022/04/04 18:47:35;;;;;;;7.60;6.70;;;;;;;9.29;36.72;97236.00;8342391;28;20609;-62
2022/04/04 18:51:38;;;;;;;8.60;6.87;;;;;;;8.85;38.26;97231.28;8352257;28;20235;-61
2022/04/04 18:55:43;;;;;;;7.97;6.90;;;;;;;8.95;38.57;97229.91;8352141;28;20232;-61
2022/04/04 18:59:46;;;;;;;8.10;6.73;;;;;;;9.01;38.81;97226.19;8352011;28;20258;-61
2022/04/04 19:03:49;;;;;;;8.10;7.30;;;;;;;8.95;39.49;97236.84;8351807;28;20228;-61
2022/04/04 19:07:53;;;;;;;7.67;6.70;;;;;;;9.03;39.33;97229.53;8351456;28;20836;-61
2022/04/04 19:11:57;;;;;;;35.20;28.40;;;;;;;10.90;54.47;97228.22;8348218;28;20232;-63
2022/04/04 19:16:00;;;;;;;14.60;11.23;;;;;;;11.65;42.68;97225.56;8351333;28;20243;-62
2022/04/04 19:20:04;;;;;;;9.10;7.10;;;;;;;10.20;37.68;97220.84;8351505;28;20227;-62
2022/04/04 19:24:07;;;;;;;7.00;6.30;;;;;;;9.79;37.84;97229.09;8351103;28;20236;-62
2022/04/04 19:28:14;;;;;;;7.80;6.60;;;;;;;9.71;38.14;97226.06;8338842;28;20746;-63
2022/04/04 19:32:17;;;;;;;8.17;6.87;;;;;;;9.34;38.91;97222.81;8342096;28;20287;-63